createdAt,value
2023-05-19T00:00:26.474Z,13.14
2023-05-19T00:03:30.415Z,13.13
2023-05-19T00:06:33.233Z,13.09
2023-05-19T00:09:35.720Z,13.02
2023-05-19T00:12:37.904Z,12.97
2023-05-19T00:15:40.750Z,13.07
2023-05-19T00:18:43.437Z,13.03
2023-05-19T00:21:45.955Z,13.02
2023-05-19T00:24:49.151Z,13.00
2023-05-19T00:27:51.598Z,12.97
2023-05-19T00:30:54.007Z,13.06
2023-05-19T00:33:56.402Z,13.00
2023-05-19T00:36:58.817Z,12.97
2023-05-19T00:40:02.098Z,13.03
2023-05-19T00:43:11.235Z,12.88
2023-05-19T00:46:13.711Z,12.94
2023-05-19T00:49:15.834Z,12.98
2023-05-19T00:52:18.346Z,12.90
2023-05-19T00:55:22.409Z,12.78
2023-05-19T00:58:29.106Z,12.78
2023-05-19T01:01:32.477Z,12.71
2023-05-19T01:04:36.329Z,12.74
2023-05-19T01:07:38.647Z,12.47
2023-05-19T01:10:41.333Z,12.42
2023-05-19T01:13:44.026Z,12.44
2023-05-19T01:16:46.584Z,12.46
2023-05-19T01:20:06.495Z,12.50
2023-05-19T01:23:24.341Z,12.51
2023-05-19T01:26:45.705Z,12.54
2023-05-19T01:30:09.333Z,12.49
2023-05-19T01:33:14.235Z,12.49
2023-05-19T01:36:17.463Z,12.36
2023-05-19T01:39:20.266Z,12.49
2023-05-19T01:42:23.444Z,12.51
2023-05-19T01:45:26.614Z,12.41
2023-05-19T01:48:29.927Z,12.38
2023-05-19T01:51:35.329Z,12.33
2023-05-19T01:54:37.946Z,12.29
2023-05-19T01:57:44.089Z,12.37
2023-05-19T02:01:02.326Z,12.33
2023-05-19T02:04:23.858Z,12.25
2023-05-19T02:07:31.106Z,12.27
2023-05-19T02:10:35.842Z,12.31
2023-05-19T02:13:39.651Z,12.37
2023-05-19T02:16:45.121Z,12.25
2023-05-19T02:19:47.342Z,12.39
2023-05-19T02:22:50.319Z,12.40
2023-05-19T02:25:52.359Z,12.22
2023-05-19T02:28:54.988Z,12.12
2023-05-19T02:31:57.067Z,12.07
2023-05-19T02:34:59.993Z,12.14
2023-05-19T02:38:02.444Z,12.16
2023-05-19T02:41:05.146Z,12.11
2023-05-19T02:44:07.683Z,12.05
2023-05-19T02:47:11.303Z,12.09
2023-05-19T02:50:13.932Z,12.12
2023-05-19T02:53:16.273Z,12.06
2023-05-19T02:56:18.442Z,12.14
2023-05-19T02:59:21.996Z,12.16
2023-05-19T03:02:24.225Z,12.10
2023-05-19T03:05:26.840Z,12.15
2023-05-19T03:08:28.988Z,12.11
2023-05-19T03:11:31.742Z,12.06
2023-05-19T03:14:34.642Z,12.09
2023-05-19T03:17:37.175Z,11.96
2023-05-19T03:20:41.636Z,11.79
2023-05-19T03:23:44.190Z,11.67
2023-05-19T03:26:46.436Z,11.55
2023-05-19T03:29:48.792Z,11.70
2023-05-19T03:32:52.225Z,11.93
2023-05-19T03:35:56.429Z,11.80
2023-05-19T03:38:58.878Z,11.90
2023-05-19T03:42:01.426Z,11.97
2023-05-19T03:45:03.707Z,11.88
2023-05-19T03:48:06.738Z,12.03
2023-05-19T03:51:14.323Z,12.12
2023-05-19T03:54:17.089Z,12.18
2023-05-19T03:57:19.356Z,12.30
2023-05-19T04:00:23.150Z,12.24
2023-05-19T04:03:28.567Z,12.39
2023-05-19T04:06:31.059Z,12.29
2023-05-19T04:09:35.426Z,12.40
2023-05-19T04:12:37.778Z,12.50
2023-05-19T04:15:41.901Z,12.65
2023-05-19T04:18:46.170Z,12.79
2023-05-19T04:21:48.986Z,13.00
2023-05-19T04:24:52.304Z,13.10
2023-05-19T04:27:57.682Z,13.35
2023-05-19T04:31:02.727Z,13.50
2023-05-19T04:34:05.162Z,13.61
2023-05-19T04:37:08.100Z,13.71
2023-05-19T04:40:11.166Z,14.00
2023-05-19T04:43:13.490Z,14.41
2023-05-19T04:46:15.983Z,14.86
2023-05-19T04:49:19.768Z,15.20
2023-05-19T04:52:24.329Z,15.62
2023-05-19T04:55:26.636Z,16.46
2023-05-19T04:58:29.239Z,18.02
2023-05-19T05:01:33.002Z,19.91
2023-05-19T05:04:36.045Z,20.83
2023-05-19T05:07:39.120Z,22.00
2023-05-19T05:10:44.082Z,21.06
2023-05-19T05:13:46.252Z,20.20
2023-05-19T05:16:50.085Z,19.64
2023-05-19T05:19:53.220Z,19.23
2023-05-19T05:22:57.681Z,18.79
2023-05-19T05:26:05.844Z,18.78
2023-05-19T05:29:09.759Z,18.78
2023-05-19T05:32:11.862Z,19.09
2023-05-19T05:35:16.470Z,19.00
2023-05-19T05:38:18.530Z,17.94
2023-05-19T05:41:22.152Z,17.90
2023-05-19T05:44:24.869Z,18.15
2023-05-19T05:47:29.083Z,18.65
2023-05-19T05:50:31.666Z,18.93
2023-05-19T05:53:37.077Z,19.24
2023-05-19T05:56:41.142Z,19.10
2023-05-19T05:59:47.077Z,18.71
2023-05-19T06:02:51.279Z,19.03
2023-05-19T06:05:55.165Z,18.82
2023-05-19T06:08:57.468Z,19.31
2023-05-19T06:12:00.329Z,19.80
2023-05-19T06:15:04.227Z,21.11
2023-05-19T06:18:07.652Z,21.41
2023-05-19T06:21:13.378Z,21.34
2023-05-19T06:24:16.539Z,20.99
2023-05-19T06:27:18.685Z,20.73
2023-05-19T06:30:21.860Z,20.57
2023-05-19T06:33:26.156Z,20.89
2023-05-19T06:36:31.366Z,21.79
2023-05-19T06:39:33.932Z,22.35
2023-05-19T06:42:37.238Z,22.55
2023-05-19T06:45:40.260Z,21.46
2023-05-19T06:48:43.828Z,21.59
2023-05-19T06:51:47.915Z,20.82
2023-05-19T06:54:50.927Z,21.17
2023-05-19T06:57:53.565Z,22.04
2023-05-19T07:00:57.068Z,23.68
2023-05-19T07:04:00.001Z,22.84
2023-05-19T07:07:03.294Z,22.94
2023-05-19T07:10:06.113Z,23.62
2023-05-19T07:13:09.411Z,23.81
2023-05-19T07:16:11.856Z,23.64
2023-05-19T07:19:14.373Z,22.64
2023-05-19T07:22:16.449Z,23.17
2023-05-19T07:25:19.734Z,23.73
2023-05-19T07:28:22.386Z,25.65
2023-05-19T07:31:24.937Z,25.74
2023-05-19T07:34:27.007Z,26.41
2023-05-19T07:37:29.476Z,26.36
2023-05-19T07:40:31.846Z,26.94
2023-05-19T07:43:34.587Z,26.44
2023-05-19T07:46:37.818Z,26.14
2023-05-19T07:49:40.718Z,26.28
2023-05-19T07:52:42.759Z,26.26
2023-05-19T07:55:45.473Z,26.37
2023-05-19T07:58:47.507Z,25.47
2023-05-19T08:01:49.757Z,24.79
2023-05-19T08:04:53.171Z,24.18
2023-05-19T08:07:55.792Z,23.89
2023-05-19T08:10:58.083Z,24.69
2023-05-19T08:14:00.157Z,24.43
2023-05-19T08:17:03.839Z,24.87
2023-05-19T08:20:08.219Z,24.92
2023-05-19T08:23:10.610Z,24.56
2023-05-19T08:26:12.628Z,24.38
2023-05-19T08:29:15.020Z,24.32
2023-05-19T08:32:17.488Z,23.70
2023-05-19T08:35:20.004Z,23.86
2023-05-19T08:38:22.196Z,23.81
2023-05-19T08:41:24.591Z,23.92
2023-05-19T08:44:26.988Z,24.09
2023-05-19T08:47:29.625Z,23.68
2023-05-19T08:50:36.476Z,23.32
2023-05-19T08:53:40.941Z,22.75
2023-05-19T08:56:44.500Z,22.77
2023-05-19T08:59:48.953Z,23.79
2023-05-19T09:03:00.208Z,23.53
2023-05-19T09:06:08.879Z,22.78
2023-05-19T09:09:11.505Z,22.41
2023-05-19T09:12:14.260Z,22.10
2023-05-19T09:15:17.529Z,22.02
2023-05-19T09:18:19.947Z,21.91
2023-05-19T09:21:31.152Z,21.74
2023-05-19T09:24:34.021Z,21.87
2023-05-19T09:27:36.126Z,21.47
2023-05-19T09:30:39.412Z,21.43
2023-05-19T09:33:46.028Z,21.43
2023-05-19T09:36:54.757Z,21.38
2023-05-19T09:39:57.230Z,21.61
2023-05-19T09:42:59.517Z,21.42
2023-05-19T09:46:06.166Z,21.63
2023-05-19T09:49:09.330Z,21.98
2023-05-19T09:52:16.264Z,21.74
2023-05-19T09:55:22.993Z,21.49
2023-05-19T09:58:31.404Z,21.64
2023-05-19T10:01:33.946Z,21.39
2023-05-19T10:04:37.064Z,21.26
2023-05-19T10:07:40.451Z,21.36
2023-05-19T10:10:42.833Z,21.49
2023-05-19T10:13:46.064Z,21.74
2023-05-19T10:16:49.641Z,21.98
2023-05-19T10:19:52.679Z,22.61
2023-05-19T10:22:55.147Z,22.78
2023-05-19T10:25:58.536Z,23.08
2023-05-19T10:29:01.997Z,22.66
2023-05-19T10:32:09.064Z,22.50
2023-05-19T10:35:31.450Z,21.94
2023-05-19T10:38:56.675Z,21.79
2023-05-19T10:42:02.458Z,21.78
2023-05-19T10:45:17.741Z,22.22
2023-05-19T10:48:21.264Z,22.53
2023-05-19T10:51:32.523Z,22.82
2023-05-19T10:54:47.058Z,23.03
2023-05-19T10:57:58.254Z,22.75
2023-05-19T11:01:01.213Z,22.94
2023-05-19T11:04:07.615Z,22.45
2023-05-19T11:07:10.539Z,22.42
2023-05-19T11:10:12.774Z,22.50
2023-05-19T11:13:22.738Z,22.47
2023-05-19T11:16:28.753Z,22.59
2023-05-19T11:19:37.169Z,22.66
2023-05-19T11:22:39.923Z,22.79
2023-05-19T11:25:47.121Z,22.74
2023-05-19T11:28:49.276Z,22.73
2023-05-19T11:31:51.896Z,22.92
2023-05-19T11:34:54.972Z,22.63
2023-05-19T11:37:57.618Z,22.22
2023-05-19T11:41:00.694Z,21.93
2023-05-19T11:44:02.994Z,22.16
2023-05-19T11:47:05.824Z,22.80
2023-05-19T11:50:10.771Z,22.85
2023-05-19T11:53:16.677Z,23.28
2023-05-19T11:56:18.976Z,23.36
2023-05-19T11:59:29.257Z,23.42
2023-05-19T12:02:31.763Z,23.00
2023-05-19T12:05:39.980Z,22.49
2023-05-19T12:08:45.614Z,21.96
2023-05-19T12:11:47.989Z,22.41
2023-05-19T12:14:50.620Z,22.60
2023-05-19T12:17:57.144Z,22.76
2023-05-19T12:20:59.214Z,23.09
2023-05-19T12:24:01.734Z,23.25
2023-05-19T12:27:17.013Z,23.47
2023-05-19T12:30:24.595Z,23.53
2023-05-19T12:33:26.834Z,23.30
2023-05-19T12:36:29.228Z,23.16
2023-05-19T12:39:34.060Z,23.13
2023-05-19T12:42:36.434Z,23.14
2023-05-19T12:45:42.724Z,23.01
2023-05-19T12:48:46.044Z,23.23
2023-05-19T12:51:51.888Z,23.18
2023-05-19T12:55:01.611Z,23.14
2023-05-19T12:58:05.901Z,23.54
2023-05-19T13:01:15.582Z,23.62
2023-05-19T13:04:18.340Z,23.89
2023-05-19T13:07:21.315Z,24.04
2023-05-19T13:10:23.718Z,23.99
2023-05-19T13:13:26.126Z,23.73
2023-05-19T13:16:29.408Z,23.90
2023-05-19T13:19:32.491Z,23.69
2023-05-19T13:22:34.519Z,23.48
2023-05-19T13:25:36.898Z,23.54
2023-05-19T13:28:38.883Z,23.50
2023-05-19T13:31:42.770Z,23.71
2023-05-19T13:34:45.112Z,23.68
2023-05-19T13:37:49.458Z,23.43
2023-05-19T13:40:51.475Z,23.14
2023-05-19T13:43:53.854Z,23.04
2023-05-19T13:46:56.130Z,23.12
2023-05-19T13:49:58.453Z,23.25
2023-05-19T13:53:00.452Z,23.27
2023-05-19T13:56:02.848Z,23.37
2023-05-19T13:59:05.020Z,23.24
2023-05-19T14:02:07.498Z,23.09
2023-05-19T14:05:10.152Z,22.80
2023-05-19T14:08:12.263Z,22.68
2023-05-19T14:11:19.563Z,22.26
2023-05-19T14:14:21.955Z,22.35
2023-05-19T14:17:27.135Z,22.45
2023-05-19T14:20:29.829Z,22.66
2023-05-19T14:23:32.162Z,22.80
2023-05-19T14:26:34.409Z,22.99
2023-05-19T14:29:36.766Z,23.22
2023-05-19T14:32:38.953Z,23.24
2023-05-19T14:35:41.371Z,23.30
2023-05-19T14:38:43.543Z,23.35
2023-05-19T14:41:46.134Z,23.17
2023-05-19T14:44:48.414Z,22.97
2023-05-19T14:47:51.031Z,22.92
2023-05-19T14:50:53.315Z,22.90
2023-05-19T14:53:55.744Z,22.99
2023-05-19T14:56:57.814Z,23.16
2023-05-19T15:00:00.221Z,23.14
2023-05-19T15:03:02.383Z,23.11
2023-05-19T15:06:08.259Z,22.91
2023-05-19T15:09:14.247Z,22.61
2023-05-19T15:12:16.564Z,22.62
2023-05-19T15:15:20.228Z,22.39
2023-05-19T15:18:22.604Z,22.45
2023-05-19T15:21:25.893Z,22.57
2023-05-19T15:24:28.424Z,22.75
2023-05-19T15:27:30.503Z,22.87
2023-05-19T15:30:32.982Z,23.16
2023-05-19T15:33:35.073Z,23.08
2023-05-19T15:36:37.480Z,23.32
2023-05-19T15:39:41.753Z,23.24
2023-05-19T15:42:44.040Z,23.32
2023-05-19T15:45:46.128Z,23.43
2023-05-19T15:48:48.566Z,23.36
2023-05-19T15:51:51.282Z,23.30
2023-05-19T15:54:55.178Z,23.26
2023-05-19T15:57:57.234Z,23.29
2023-05-19T16:01:00.632Z,23.31
2023-05-19T16:04:05.887Z,23.11
2023-05-19T16:07:08.088Z,23.10
2023-05-19T16:10:10.665Z,23.03
2023-05-19T16:13:12.776Z,22.91
2023-05-19T16:16:15.339Z,22.92
2023-05-19T16:19:17.551Z,22.78
2023-05-19T16:22:24.605Z,22.59
2023-05-19T16:25:26.692Z,22.46
2023-05-19T16:28:29.065Z,22.36
2023-05-19T16:31:33.409Z,22.27
2023-05-19T16:34:35.889Z,22.27
2023-05-19T16:37:37.933Z,22.22
2023-05-19T16:40:41.522Z,22.00
2023-05-19T16:43:45.368Z,21.83
2023-05-19T16:46:50.231Z,21.73
2023-05-19T16:49:55.033Z,21.70
2023-05-19T16:52:58.601Z,21.52
2023-05-19T16:56:00.766Z,21.37
2023-05-19T16:59:03.181Z,21.23
2023-05-19T17:02:06.976Z,21.14
2023-05-19T17:05:09.756Z,21.10
2023-05-19T17:08:12.670Z,20.94
2023-05-19T17:11:17.286Z,20.81
2023-05-19T17:14:19.891Z,20.60
2023-05-19T17:17:22.244Z,20.56
2023-05-19T17:20:24.696Z,20.40
2023-05-19T17:23:28.511Z,20.26
2023-05-19T17:26:30.576Z,20.10
2023-05-19T17:29:34.565Z,20.01
2023-05-19T17:32:39.630Z,19.92
2023-05-19T17:35:44.382Z,19.77
2023-05-19T17:38:46.774Z,19.67
2023-05-19T17:41:49.107Z,19.56
2023-05-19T17:44:51.308Z,19.44
2023-05-19T17:47:53.714Z,19.26
2023-05-19T17:50:55.754Z,19.23
2023-05-19T17:53:58.421Z,19.07
2023-05-19T17:57:03.418Z,18.91
2023-05-19T18:00:07.656Z,18.80
2023-05-19T18:03:11.459Z,18.68
2023-05-19T18:06:14.993Z,18.59
2023-05-19T18:09:18.958Z,18.45
2023-05-19T18:12:22.916Z,18.32
2023-05-19T18:15:27.860Z,18.19
2023-05-19T18:18:30.015Z,18.07
2023-05-19T18:21:32.439Z,17.95
2023-05-19T18:24:34.418Z,17.81
2023-05-19T18:27:36.712Z,17.71
2023-05-19T18:30:39.007Z,17.60
2023-05-19T18:33:41.926Z,17.52
2023-05-19T18:36:44.041Z,17.35
2023-05-19T18:39:46.726Z,17.27
2023-05-19T18:42:48.876Z,17.14
2023-05-19T18:45:51.452Z,17.13
2023-05-19T18:48:53.584Z,16.93
2023-05-19T18:51:55.941Z,16.85
2023-05-19T18:54:59.551Z,16.73
2023-05-19T18:58:01.856Z,16.63
2023-05-19T19:01:05.126Z,16.54
2023-05-19T19:04:10.179Z,16.50
2023-05-19T19:07:12.386Z,16.43
2023-05-19T19:10:15.221Z,16.42
2023-05-19T19:13:20.373Z,16.30
2023-05-19T19:16:25.022Z,16.17
2023-05-19T19:19:31.824Z,16.14
2023-05-19T19:22:34.230Z,16.14
2023-05-19T19:25:36.266Z,16.13
2023-05-19T19:28:38.636Z,16.10
2023-05-19T19:31:40.739Z,16.04
2023-05-19T19:34:43.133Z,15.94
2023-05-19T19:37:46.822Z,16.06
2023-05-19T19:40:51.003Z,16.16
2023-05-19T19:43:53.191Z,15.96
2023-05-19T19:46:55.708Z,15.99
2023-05-19T19:49:57.791Z,16.04
2023-05-19T19:53:01.064Z,16.05
2023-05-19T19:56:03.844Z,16.00
2023-05-19T19:59:07.489Z,15.98
2023-05-19T20:02:09.844Z,15.96
2023-05-19T20:05:12.524Z,15.90
2023-05-19T20:08:16.057Z,16.02
2023-05-19T20:11:19.819Z,16.12
2023-05-19T20:14:21.813Z,16.12
2023-05-19T20:17:26.966Z,16.14
2023-05-19T20:20:29.356Z,16.17
2023-05-19T20:23:31.677Z,16.28
2023-05-19T20:26:34.066Z,16.16
2023-05-19T20:29:38.770Z,16.19
2023-05-19T20:32:40.835Z,16.14
2023-05-19T20:35:46.524Z,16.26
2023-05-19T20:38:48.545Z,16.17
2023-05-19T20:41:51.087Z,16.15
2023-05-19T20:44:53.433Z,16.26
2023-05-19T20:47:56.243Z,16.10
2023-05-19T20:50:58.355Z,16.09
2023-05-19T20:54:00.980Z,15.99
2023-05-19T20:57:06.518Z,16.05
2023-05-19T21:00:10.168Z,15.97
2023-05-19T21:03:12.295Z,15.91
2023-05-19T21:06:14.782Z,15.90
2023-05-19T21:09:17.182Z,15.92
2023-05-19T21:12:23.629Z,15.89
2023-05-19T21:15:26.987Z,15.86
2023-05-19T21:18:29.391Z,15.78
2023-05-19T21:21:31.732Z,15.85
2023-05-19T21:24:34.089Z,15.80
2023-05-19T21:27:36.679Z,15.59
2023-05-19T21:30:38.991Z,15.48
2023-05-19T21:33:40.979Z,15.61
2023-05-19T21:36:43.322Z,15.40
2023-05-19T21:39:45.736Z,15.27
2023-05-19T21:42:49.478Z,15.27
2023-05-19T21:45:52.913Z,15.33
2023-05-19T21:48:55.540Z,15.23
2023-05-19T21:51:57.612Z,15.26
2023-05-19T21:54:59.894Z,15.24
2023-05-19T21:58:02.717Z,15.26
2023-05-19T22:01:05.191Z,15.21
2023-05-19T22:04:12.481Z,15.16
2023-05-19T22:07:14.494Z,15.09
2023-05-19T22:10:17.399Z,15.13
2023-05-19T22:13:22.305Z,15.05
2023-05-19T22:16:24.814Z,15.12
2023-05-19T22:19:27.712Z,15.10
2023-05-19T22:22:30.055Z,15.10
2023-05-19T22:25:32.211Z,15.09
2023-05-19T22:28:34.700Z,15.11
2023-05-19T22:31:37.518Z,15.03
2023-05-19T22:34:41.662Z,14.90
2023-05-19T22:37:44.834Z,14.83
2023-05-19T22:40:47.135Z,14.80
2023-05-19T22:43:50.840Z,14.77
2023-05-19T22:46:53.159Z,14.68
2023-05-19T22:49:57.051Z,14.74
2023-05-19T22:53:00.791Z,14.63
2023-05-19T22:56:04.035Z,14.64
2023-05-19T22:59:10.740Z,14.62
2023-05-19T23:02:13.386Z,14.59
2023-05-19T23:05:15.818Z,14.58
2023-05-19T23:08:17.956Z,14.59
2023-05-19T23:11:20.666Z,14.65
2023-05-19T23:14:24.016Z,14.62
2023-05-19T23:17:26.421Z,14.65
2023-05-19T23:20:28.735Z,14.66
2023-05-19T23:23:31.267Z,14.66
2023-05-19T23:26:33.449Z,14.71
2023-05-19T23:29:37.835Z,14.75
2023-05-19T23:32:41.515Z,14.89
2023-05-19T23:35:45.938Z,14.85
2023-05-19T23:38:48.319Z,14.83
2023-05-19T23:41:51.106Z,14.85
2023-05-19T23:44:53.107Z,14.91
2023-05-19T23:47:55.728Z,14.82
2023-05-19T23:50:58.661Z,14.83
2023-05-19T23:54:01.140Z,14.84
2023-05-19T23:57:03.332Z,14.85
